createdAt,value
2019-01-25T00:03:40.870Z,-4.57
2019-01-25T00:08:44.058Z,-4.65
2019-01-25T00:13:47.261Z,-4.63
2019-01-25T00:18:50.465Z,-4.62
2019-01-25T00:23:53.769Z,-4.49
2019-01-25T00:28:56.926Z,-4.54
2019-01-25T00:34:00.225Z,-4.52
2019-01-25T00:39:04.805Z,-4.46
2019-01-25T00:44:08.090Z,-4.46
2019-01-25T00:49:14.279Z,-4.39
2019-01-25T00:54:17.530Z,-4.37
2019-01-25T00:59:20.781Z,-4.42
2019-01-25T01:04:24.006Z,-4.38
2019-01-25T01:09:27.262Z,-4.28
2019-01-25T01:14:30.458Z,-4.32
2019-01-25T01:19:33.674Z,-4.32
2019-01-25T01:24:36.874Z,-4.43
2019-01-25T01:29:40.150Z,-4.36
2019-01-25T01:34:43.353Z,-4.19
2019-01-25T01:39:46.647Z,-4.22
2019-01-25T01:44:49.876Z,-4.33
2019-01-25T01:49:53.144Z,-4.30
2019-01-25T01:54:56.334Z,-4.25
2019-01-25T01:59:59.551Z,-4.29
2019-01-25T02:05:02.806Z,-4.36
2019-01-25T02:10:07.734Z,-4.41
2019-01-25T02:15:12.641Z,-4.28
2019-01-25T02:20:21.083Z,-4.32
2019-01-25T02:25:24.470Z,-4.33
2019-01-25T02:30:27.851Z,-4.37
2019-01-25T02:35:31.140Z,-4.33
2019-01-25T02:40:39.228Z,-4.32
2019-01-25T02:45:37.602Z,-4.44
2019-01-25T02:50:40.857Z,-4.39
2019-01-25T02:55:44.105Z,-4.35
2019-01-25T03:00:47.421Z,-4.61
2019-01-25T03:05:50.670Z,-4.50
2019-01-25T03:10:53.916Z,-4.55
2019-01-25T03:15:57.131Z,-4.67
2019-01-25T03:21:00.333Z,-4.56
2019-01-25T03:26:03.615Z,-4.57
2019-01-25T03:31:06.850Z,-4.69
2019-01-25T03:36:10.119Z,-4.64
2019-01-25T03:41:13.319Z,-4.60
2019-01-25T03:46:16.567Z,-4.60
2019-01-25T03:51:19.767Z,-4.67
2019-01-25T03:56:22.966Z,-4.74
2019-01-25T04:01:26.177Z,-4.74
2019-01-25T04:06:29.526Z,-4.78
2019-01-25T04:11:32.737Z,-4.65
2019-01-25T04:16:35.946Z,-4.71
2019-01-25T04:21:39.217Z,-4.72
2019-01-25T04:26:42.448Z,-4.73
2019-01-25T04:31:45.668Z,-4.58
2019-01-25T04:36:48.943Z,-4.64
2019-01-25T04:41:52.133Z,-4.69
2019-01-25T04:46:55.442Z,-4.59
2019-01-25T04:51:58.666Z,-4.60
2019-01-25T04:57:01.867Z,-4.57
2019-01-25T05:02:05.137Z,-4.79
2019-01-25T05:07:08.441Z,-4.86
2019-01-25T05:12:11.655Z,-4.71
2019-01-25T05:17:14.863Z,-4.64
2019-01-25T05:22:18.078Z,-4.65
2019-01-25T05:27:21.311Z,-4.57
2019-01-25T05:32:24.569Z,-4.54
2019-01-25T05:37:27.803Z,-4.76
2019-01-25T05:42:31.013Z,-4.62
2019-01-25T05:47:34.217Z,-4.58
2019-01-25T05:52:37.442Z,-4.62
2019-01-25T05:57:40.645Z,-4.65
2019-01-25T06:02:43.903Z,-4.73
2019-01-25T06:07:47.142Z,-4.61
2019-01-25T06:12:53.203Z,-4.54
2019-01-25T06:18:00.700Z,-4.58
2019-01-25T06:23:03.907Z,-4.67
2019-01-25T06:28:07.141Z,-4.57
2019-01-25T06:33:10.352Z,-4.71
2019-01-25T06:38:13.554Z,-4.74
2019-01-25T06:43:16.768Z,-4.80
2019-01-25T06:48:20.015Z,-4.84
2019-01-25T06:53:23.226Z,-4.93
2019-01-25T06:59:32.646Z,-4.90
2019-01-25T07:04:35.867Z,-4.95
2019-01-25T07:09:39.062Z,-4.89
2019-01-25T07:14:42.297Z,-4.94
2019-01-25T07:19:45.496Z,-5.07
2019-01-25T07:24:48.683Z,-4.98
2019-01-25T07:29:51.922Z,-4.80
2019-01-25T07:34:55.149Z,-4.98
2019-01-25T07:39:58.432Z,-4.91
2019-01-25T07:45:01.659Z,-5.07
2019-01-25T07:50:05.690Z,-4.96
2019-01-25T07:55:08.924Z,-4.97
2019-01-25T08:00:12.203Z,-5.03
2019-01-25T08:05:15.450Z,-4.74
2019-01-25T08:10:18.694Z,-4.57
2019-01-25T08:15:21.954Z,-4.78
2019-01-25T08:20:25.211Z,-4.84
2019-01-25T08:25:28.362Z,-4.80
2019-01-25T08:30:31.664Z,-4.67
2019-01-25T08:35:34.932Z,-4.40
2019-01-25T08:40:38.173Z,-4.27
2019-01-25T08:45:42.378Z,-4.44
2019-01-25T08:50:45.655Z,-4.63
2019-01-25T08:55:48.859Z,-4.23
2019-01-25T09:00:52.059Z,-3.89
2019-01-25T09:05:55.342Z,-4.02
2019-01-25T09:10:58.649Z,-4.26
2019-01-25T09:16:02.929Z,-4.35
2019-01-25T09:21:06.298Z,-4.27
2019-01-25T09:26:09.511Z,-4.22
2019-01-25T09:31:12.850Z,-3.96
2019-01-25T09:36:16.128Z,-3.76
2019-01-25T09:41:19.336Z,-3.71
2019-01-25T09:46:22.551Z,-3.45
2019-01-25T09:51:25.767Z,-3.61
2019-01-25T09:56:29.074Z,-3.43
2019-01-25T10:01:32.291Z,-3.43
2019-01-25T10:06:35.527Z,-3.79
2019-01-25T10:11:38.777Z,-3.34
2019-01-25T10:16:41.985Z,-3.73
2019-01-25T10:21:45.304Z,-3.41
2019-01-25T10:26:48.596Z,-3.37
2019-01-25T10:31:51.823Z,-3.44
2019-01-25T10:36:55.118Z,-3.40
2019-01-25T10:41:58.422Z,-3.36
2019-01-25T10:47:01.626Z,-3.48
2019-01-25T10:52:04.858Z,-3.49
2019-01-25T10:57:08.282Z,-3.37
2019-01-25T11:02:11.586Z,-3.35
2019-01-25T11:07:14.870Z,-3.24
2019-01-25T11:12:18.234Z,-3.39
2019-01-25T11:17:21.450Z,-3.69
2019-01-25T11:22:24.782Z,-3.85
2019-01-25T11:27:29.371Z,-3.59
2019-01-25T11:32:31.285Z,-3.55
2019-01-25T11:37:34.574Z,-3.76
2019-01-25T11:42:37.820Z,-3.40
2019-01-25T11:47:41.128Z,-3.40
2019-01-25T11:52:44.357Z,-3.53
2019-01-25T11:57:47.683Z,-3.50
2019-01-25T12:02:52.055Z,-3.60
2019-01-25T12:07:55.463Z,-3.27
2019-01-25T12:12:58.666Z,-3.24
2019-01-25T12:18:02.133Z,-3.21
2019-01-25T12:23:05.378Z,-3.45
2019-01-25T12:28:08.617Z,-3.59
2019-01-25T12:33:11.922Z,-3.35
2019-01-25T12:38:15.232Z,-3.49
2019-01-25T12:43:23.911Z,-3.46
2019-01-25T12:48:21.937Z,-3.54
2019-01-25T12:53:25.923Z,-3.36
2019-01-25T12:58:30.832Z,-3.41
2019-01-25T13:03:32.688Z,-3.24
2019-01-25T13:08:36.001Z,-3.36
2019-01-25T13:13:39.405Z,-3.44
2019-01-25T13:18:42.717Z,-3.39
2019-01-25T13:23:46.122Z,-3.50
2019-01-25T13:28:49.317Z,-3.41
2019-01-25T13:33:52.638Z,-3.58
2019-01-25T13:38:55.998Z,-3.54
2019-01-25T13:43:59.303Z,-3.61
2019-01-25T13:49:02.610Z,-3.52
2019-01-25T13:54:07.684Z,-3.54
2019-01-25T13:59:09.323Z,-3.73
2019-01-25T14:04:12.613Z,-3.72
2019-01-25T14:09:16.873Z,-3.59
2019-01-25T14:14:19.250Z,-3.66
2019-01-25T14:19:22.672Z,-3.76
2019-01-25T14:24:25.971Z,-3.77
2019-01-25T14:29:29.437Z,-3.80
2019-01-25T14:34:32.614Z,-3.73
2019-01-25T14:39:35.950Z,-3.78
2019-01-25T14:44:39.383Z,-3.83
2019-01-25T14:49:42.751Z,-3.80
2019-01-25T14:54:46.059Z,-3.74
2019-01-25T14:59:49.379Z,-3.91
2019-01-25T15:04:52.713Z,-3.88
2019-01-25T15:09:56.016Z,-3.81
2019-01-25T15:14:59.390Z,-3.78
2019-01-25T15:20:02.814Z,-3.91
2019-01-25T15:25:06.203Z,-3.91
2019-01-25T15:30:12.872Z,-4.08
2019-01-25T15:35:16.884Z,-4.28
2019-01-25T15:40:20.291Z,-4.23
2019-01-25T15:45:23.655Z,-4.26
2019-01-25T15:50:29.594Z,-4.24
2019-01-25T15:55:32.933Z,-4.22
2019-01-25T16:00:36.286Z,-4.37
2019-01-25T16:05:39.609Z,-4.41
2019-01-25T16:10:42.935Z,-4.44
2019-01-25T16:15:46.263Z,-4.43
2019-01-25T16:20:49.587Z,-4.32
2019-01-25T16:25:52.891Z,-4.33
2019-01-25T16:30:56.247Z,-4.29
2019-01-25T16:35:59.659Z,-4.36
2019-01-25T16:41:04.119Z,-4.31
2019-01-25T16:46:07.534Z,-4.29
2019-01-25T16:51:10.938Z,-4.31
2019-01-25T16:56:14.430Z,-4.38
2019-01-25T17:01:17.858Z,-4.35
2019-01-25T17:06:21.273Z,-4.39
2019-01-25T17:11:25.462Z,-4.37
2019-01-25T17:16:28.842Z,-4.38
2019-01-25T17:21:32.257Z,-4.40
2019-01-25T17:26:35.634Z,-4.38
2019-01-25T17:31:38.934Z,-4.30
2019-01-25T17:36:42.369Z,-4.41
2019-01-25T17:41:46.522Z,-4.35
2019-01-25T17:46:49.824Z,-4.37
2019-01-25T17:51:53.152Z,-4.40
2019-01-25T17:56:56.574Z,-4.49
2019-01-25T18:02:00.748Z,-4.53
2019-01-25T18:07:04.202Z,-4.51
2019-01-25T18:12:07.599Z,-4.54
2019-01-25T18:17:10.914Z,-4.46
2019-01-25T18:22:14.307Z,-4.39
2019-01-25T18:27:17.733Z,-4.45
2019-01-25T18:32:21.051Z,-4.42
2019-01-25T18:37:24.415Z,-4.49
2019-01-25T18:42:27.790Z,-4.38
2019-01-25T18:47:34.188Z,-4.47
2019-01-25T18:52:37.633Z,-4.36
2019-01-25T18:57:40.957Z,-4.36
2019-01-25T19:02:44.323Z,-4.30
2019-01-25T19:07:47.630Z,-4.42
2019-01-25T19:12:50.958Z,-4.41
2019-01-25T19:17:54.272Z,-4.40
2019-01-25T19:22:57.635Z,-4.37
2019-01-25T19:28:00.945Z,-4.37
2019-01-25T19:33:04.360Z,-4.36
2019-01-25T19:38:08.731Z,-4.28
2019-01-25T19:43:12.982Z,-4.24
2019-01-25T19:48:16.489Z,-4.30
2019-01-25T19:53:20.209Z,-4.26
2019-01-25T19:58:23.786Z,-4.23
2019-01-25T20:03:27.254Z,-4.19
2019-01-25T20:08:30.759Z,-4.18
2019-01-25T20:13:34.180Z,-4.19
2019-01-25T20:18:37.504Z,-4.21
2019-01-25T20:23:41.318Z,-4.26
2019-01-25T20:28:44.810Z,-4.27
2019-01-25T20:33:48.246Z,-4.28
2019-01-25T20:38:51.714Z,-4.30
2019-01-25T20:43:55.426Z,-4.26
2019-01-25T20:48:58.863Z,-4.25
2019-01-25T20:54:02.332Z,-4.20
2019-01-25T20:59:05.761Z,-4.19
2019-01-25T21:04:09.603Z,-4.18
2019-01-25T21:09:12.999Z,-4.17
2019-01-25T21:14:16.341Z,-4.14
2019-01-25T21:19:19.778Z,-4.11
2019-01-25T21:24:23.152Z,-4.07
2019-01-25T21:29:26.458Z,-4.03
2019-01-25T21:34:33.842Z,-3.99
2019-01-25T21:39:37.191Z,-4.03
2019-01-25T21:44:40.506Z,-3.98
2019-01-25T21:49:43.899Z,-3.94
2019-01-25T21:54:47.246Z,-3.87
2019-01-25T21:59:50.619Z,-3.81
2019-01-25T22:04:53.935Z,-3.79
2019-01-25T22:09:57.334Z,-3.77
2019-01-25T22:15:00.661Z,-3.75
2019-01-25T22:20:05.318Z,-3.77
2019-01-25T22:25:08.931Z,-3.71
2019-01-25T22:30:14.553Z,-3.68
2019-01-25T22:35:17.742Z,-3.60
2019-01-25T22:40:24.412Z,-3.59
2019-01-25T22:45:28.995Z,-3.49
2019-01-25T22:50:35.309Z,-3.45
2019-01-25T22:55:38.503Z,-3.40
2019-01-25T23:00:51.898Z,-3.39
2019-01-25T23:07:05.967Z,-3.37
2019-01-25T23:12:09.157Z,-3.35
2019-01-25T23:17:12.395Z,-3.32
2019-01-25T23:22:15.660Z,-3.28
2019-01-25T23:27:18.979Z,-3.24
2019-01-25T23:32:22.261Z,-3.26
2019-01-25T23:37:25.656Z,-3.28
2019-01-25T23:42:28.852Z,-3.31
2019-01-25T23:47:32.042Z,-3.31
2019-01-25T23:52:35.285Z,-3.30
2019-01-25T23:57:38.484Z,-3.32
